createdAt,value
2017-09-25T00:55:11.466Z,29.55
2017-09-25T00:57:59.918Z,32.13
2017-09-25T01:00:39.218Z,31.85
2017-09-25T01:03:18.682Z,34.90
2017-09-25T01:05:58.381Z,32.97
2017-09-25T01:08:31.260Z,31.67
2017-09-25T01:11:13.706Z,30.25
2017-09-25T01:13:42.084Z,31.67
2017-09-25T01:16:11.694Z,33.60
2017-09-25T01:18:40.102Z,31.15
2017-09-25T01:23:50.826Z,31.12
2017-09-25T01:26:19.156Z,31.73
2017-09-25T01:28:46.642Z,30.08
2017-09-25T01:31:14.807Z,30.60
2017-09-25T01:33:42.429Z,29.33
2017-09-25T01:36:10.242Z,29.67
2017-09-25T01:38:37.987Z,28.98
2017-09-25T01:41:05.466Z,28.83
2017-09-25T01:43:33.803Z,29.50
2017-09-25T01:46:01.365Z,28.77
2017-09-25T01:48:28.863Z,28.95
2017-09-25T01:50:56.314Z,28.80
2017-09-25T01:53:23.810Z,24.40
2017-09-25T01:55:51.263Z,26.12
2017-09-25T01:58:18.728Z,24.85
2017-09-25T02:00:46.211Z,24.02
2017-09-25T02:03:13.685Z,25.67
2017-09-25T02:05:41.142Z,24.80
2017-09-25T02:08:08.623Z,24.45
2017-09-25T02:10:36.073Z,23.70
2017-09-25T02:13:03.529Z,25.05
2017-09-25T02:15:30.999Z,23.95
2017-09-25T02:17:58.441Z,24.67
2017-09-25T02:20:25.900Z,23.12
2017-09-25T02:22:53.385Z,24.02
2017-09-25T02:25:21.607Z,24.08
2017-09-25T02:27:49.067Z,23.92
2017-09-25T02:30:16.531Z,24.77
2017-09-25T02:32:43.978Z,25.45
2017-09-25T02:35:11.452Z,25.52
2017-09-25T02:37:38.911Z,23.02
2017-09-25T02:40:06.375Z,25.50
2017-09-25T02:42:33.828Z,25.37
2017-09-25T02:45:01.288Z,24.35
2017-09-25T02:47:28.738Z,22.15
2017-09-25T02:49:56.206Z,22.55
2017-09-25T02:52:23.658Z,21.83
2017-09-25T02:54:51.105Z,22.10
2017-09-25T02:57:18.565Z,21.12
2017-09-25T02:59:46.027Z,24.08
2017-09-25T03:02:13.489Z,22.92
2017-09-25T03:04:40.938Z,23.38
2017-09-25T03:07:08.420Z,24.83
2017-09-25T03:09:36.642Z,23.90
2017-09-25T03:12:04.106Z,24.12
2017-09-25T03:14:31.559Z,24.10
2017-09-25T03:16:59.013Z,22.25
2017-09-25T03:19:26.478Z,23.52
2017-09-25T03:21:53.938Z,23.02
2017-09-25T03:24:21.394Z,23.60
2017-09-25T03:26:48.863Z,22.87
2017-09-25T03:29:16.318Z,23.10
2017-09-25T03:31:43.774Z,22.92
2017-09-25T03:34:11.234Z,21.98
2017-09-25T03:36:38.689Z,21.65
2017-09-25T03:39:06.148Z,20.75
2017-09-25T03:41:33.607Z,20.98
2017-09-25T03:44:01.078Z,20.95
2017-09-25T03:46:28.539Z,21.20
2017-09-25T03:48:55.990Z,21.25
2017-09-25T03:51:23.445Z,21.95
2017-09-25T03:53:50.934Z,20.60
2017-09-25T03:56:19.158Z,20.35
2017-09-25T03:58:46.622Z,18.62
2017-09-25T04:01:14.088Z,18.25
2017-09-25T04:03:41.547Z,19.45
2017-09-25T04:06:09.015Z,19.45
2017-09-25T04:08:36.470Z,19.02
2017-09-25T04:11:03.926Z,18.02
2017-09-25T04:13:31.390Z,17.65
2017-09-25T04:15:58.838Z,18.83
2017-09-25T04:18:26.309Z,21.10
2017-09-25T04:20:54.093Z,20.25
2017-09-25T04:23:22.326Z,21.12
2017-09-25T04:25:49.779Z,19.85
2017-09-25T04:28:17.240Z,20.70
2017-09-25T04:30:44.695Z,19.50
2017-09-25T04:33:12.171Z,18.87
2017-09-25T04:35:39.613Z,20.33
2017-09-25T04:38:07.073Z,20.85
2017-09-25T04:40:34.529Z,17.98
2017-09-25T04:43:02.013Z,17.58
2017-09-25T04:45:29.475Z,18.30
2017-09-25T04:47:56.934Z,18.58
2017-09-25T04:50:26.066Z,19.08
2017-09-25T04:52:53.522Z,18.27
2017-09-25T04:55:20.991Z,17.90
2017-09-25T04:57:48.449Z,17.45
2017-09-25T05:00:15.903Z,17.75
2017-09-25T05:02:43.367Z,16.00
2017-09-25T05:05:10.862Z,17.37
2017-09-25T05:07:38.306Z,16.80
2017-09-25T05:10:05.772Z,15.23
2017-09-25T05:12:33.226Z,15.45
2017-09-25T05:15:00.677Z,15.38
2017-09-25T05:17:28.139Z,14.90
2017-09-25T05:19:55.602Z,15.85
2017-09-25T05:22:23.067Z,14.80
2017-09-25T05:24:50.529Z,16.23
2017-09-25T05:27:18.819Z,15.52
2017-09-25T05:29:47.041Z,15.43
2017-09-25T05:32:14.493Z,14.05
2017-09-25T05:34:41.958Z,15.77
2017-09-25T05:37:09.410Z,13.32
2017-09-25T05:39:36.865Z,14.40
2017-09-25T05:42:04.327Z,14.15
2017-09-25T05:44:31.804Z,12.95
2017-09-25T05:46:59.267Z,12.63
2017-09-25T05:49:26.748Z,12.45
2017-09-25T05:51:54.974Z,13.55
2017-09-25T05:54:22.426Z,13.55
2017-09-25T05:56:49.896Z,12.80
2017-09-25T05:59:17.351Z,13.32
2017-09-25T06:01:44.821Z,12.20
2017-09-25T06:04:12.280Z,11.82
2017-09-25T06:06:39.961Z,12.68
2017-09-25T06:12:14.914Z,11.95
2017-09-25T06:14:50.167Z,10.10
